sensor_id;sensor_type;location;lat;lon;timestamp;temperature;humidity
52397;DHT22;38322;53.108;6.308;2022-12-29T06:00:41;8.90;99.90
52397;DHT22;38322;53.108;6.308;2022-12-29T06:03:07;8.90;99.90
52397;DHT22;38322;53.108;6.308;2022-12-29T06:05:33;8.90;99.90
52397;DHT22;38322;53.108;6.308;2022-12-29T06:07:58;8.90;99.90
52397;DHT22;38322;53.108;6.308;2022-12-29T06:10:24;8.80;99.90
52397;DHT22;38322;53.108;6.308;2022-12-29T06:12:50;8.80;99.90
52397;DHT22;38322;53.108;6.308;2022-12-29T06:15:16;8.80;99.90
52397;DHT22;38322;53.108;6.308;2022-12-29T06:17:42;8.80;99.90
52397;DHT22;38322;53.108;6.308;2022-12-29T06:20:09;8.90;99.90
52397;DHT22;38322;53.108;6.308;2022-12-29T06:22:35;8.90;99.90
52397;DHT22;38322;53.108;6.308;2022-12-29T06:25:02;8.80;99.90
52397;DHT22;38322;53.108;6.308;2022-12-29T06:27:28;8.80;99.90
52397;DHT22;38322;53.108;6.308;2022-12-29T06:29:54;8.90;99.90
52397;DHT22;38322;53.108;6.308;2022-12-29T06:32:20;8.80;99.90
52397;DHT22;38322;53.108;6.308;2022-12-29T06:34:46;8.80;99.90
52397;DHT22;38322;53.108;6.308;2022-12-29T06:37:12;8.70;99.90
52397;DHT22;38322;53.108;6.308;2022-12-29T06:39:38;8.70;99.90
52397;DHT22;38322;53.108;6.308;2022-12-29T06:42:04;8.70;99.90
52397;DHT22;38322;53.108;6.308;2022-12-29T06:44:30;8.70;99.90
52397;DHT22;38322;53.108;6.308;2022-12-29T06:46:56;8.70;99.90
52397;DHT22;38322;53.108;6.308;2022-12-29T06:49:23;8.60;99.90
52397;DHT22;38322;53.108;6.308;2022-12-29T06:51:49;8.60;99.90
52397;DHT22;38322;53.108;6.308;2022-12-29T06:54:14;8.60;99.90
52397;DHT22;38322;53.108;6.308;2022-12-29T06:56:40;8.60;99.90
52397;DHT22;38322;53.108;6.308;2022-12-29T06:59:06;8.60;99.90
52397;DHT22;38322;53.108;6.308;2022-12-29T07:01:32;8.60;99.90
52397;DHT22;38322;53.108;6.308;2022-12-29T07:03:58;8.60;99.90
52397;DHT22;38322;53.108;6.308;2022-12-29T07:06:24;8.60;99.90
52397;DHT22;38322;53.108;6.308;2022-12-29T07:08:50;8.70;99.90
52397;DHT22;38322;53.108;6.308;2022-12-29T07:11:15;8.70;99.90
52397;DHT22;38322;53.108;6.308;2022-12-29T07:13:41;8.70;99.90
52397;DHT22;38322;53.108;6.308;2022-12-29T07:16:08;8.80;99.90
52397;DHT22;38322;53.108;6.308;2022-12-29T07:18:35;8.80;99.90
52397;DHT22;38322;53.108;6.308;2022-12-29T07:21:01;8.80;99.90
52397;DHT22;38322;53.108;6.308;2022-12-29T07:23:27;8.80;99.90
52397;DHT22;38322;53.108;6.308;2022-12-29T07:26:07;8.80;99.90
52397;DHT22;38322;53.108;6.308;2022-12-29T07:28:34;8.90;99.90
52397;DHT22;38322;53.108;6.308;2022-12-29T07:31:00;8.90;99.90
52397;DHT22;38322;53.108;6.308;2022-12-29T07:33:29;8.90;99.90
52397;DHT22;38322;53.108;6.308;2022-12-29T07:35:55;8.90;99.90
52397;DHT22;38322;53.108;6.308;2022-12-29T07:38:21;8.90;99.90
52397;DHT22;38322;53.108;6.308;2022-12-29T07:40:46;8.90;99.90
52397;DHT22;38322;53.108;6.308;2022-12-29T07:43:12;9.00;99.90
52397;DHT22;38322;53.108;6.308;2022-12-29T07:45:38;9.00;99.90
52397;DHT22;38322;53.108;6.308;2022-12-29T07:48:05;9.00;99.90
52397;DHT22;38322;53.108;6.308;2022-12-29T07:50:34;9.00;99.90
52397;DHT22;38322;53.108;6.308;2022-12-29T07:53:00;8.90;99.90
52397;DHT22;38322;53.108;6.308;2022-12-29T07:55:25;8.90;99.90
52397;DHT22;38322;53.108;6.308;2022-12-29T07:57:55;8.90;99.90
52397;DHT22;38322;53.108;6.308;2022-12-29T08:00:21;8.90;99.90
52397;DHT22;38322;53.108;6.308;2022-12-29T08:02:47;8.90;99.90
52397;DHT22;38322;53.108;6.308;2022-12-29T08:05:12;8.90;99.90
52397;DHT22;38322;53.108;6.308;2022-12-29T08:07:38;8.90;99.90
52397;DHT22;38322;53.108;6.308;2022-12-29T08:10:04;8.90;99.90
52397;DHT22;38322;53.108;6.308;2022-12-29T08:12:31;8.90;99.90
52397;DHT22;38322;53.108;6.308;2022-12-29T08:14:56;8.90;99.90
52397;DHT22;38322;53.108;6.308;2022-12-29T08:17:22;8.90;99.90
52397;DHT22;38322;53.108;6.308;2022-12-29T08:19:48;8.90;99.90
52397;DHT22;38322;53.108;6.308;2022-12-29T08:22:14;8.90;99.90
52397;DHT22;38322;53.108;6.308;2022-12-29T08:24:40;9.00;99.90
52397;DHT22;38322;53.108;6.308;2022-12-29T08:27:06;9.00;99.90
52397;DHT22;38322;53.108;6.308;2022-12-29T08:29:32;9.00;99.90
52397;DHT22;38322;53.108;6.308;2022-12-29T08:31:58;8.90;99.90
52397;DHT22;38322;53.108;6.308;2022-12-29T08:34:23;8.90;99.90
52397;DHT22;38322;53.108;6.308;2022-12-29T08:36:49;8.90;99.90
52397;DHT22;38322;53.108;6.308;2022-12-29T08:39:15;8.90;99.90
52397;DHT22;38322;53.108;6.308;2022-12-29T08:41:41;8.90;99.90
52397;DHT22;38322;53.108;6.308;2022-12-29T08:44:07;8.80;99.90
52397;DHT22;38322;53.108;6.308;2022-12-29T08:46:33;8.80;99.90
52397;DHT22;38322;53.108;6.308;2022-12-29T08:48:59;8.80;99.90
52397;DHT22;38322;53.108;6.308;2022-12-29T08:51:25;8.80;99.90
52397;DHT22;38322;53.108;6.308;2022-12-29T08:53:51;8.80;99.90
52397;DHT22;38322;53.108;6.308;2022-12-29T08:56:17;8.80;99.90
52397;DHT22;38322;53.108;6.308;2022-12-29T08:58:43;8.80;99.90
52397;DHT22;38322;53.108;6.308;2022-12-29T09:01:09;8.80;99.90
52397;DHT22;38322;53.108;6.308;2022-12-29T09:03:35;8.80;99.90
52397;DHT22;38322;53.108;6.308;2022-12-29T09:06:01;8.80;99.90
52397;DHT22;38322;53.108;6.308;2022-12-29T09:08:26;8.90;99.90
52397;DHT22;38322;53.108;6.308;2022-12-29T09:10:52;8.80;99.90
52397;DHT22;38322;53.108;6.308;2022-12-29T09:13:18;8.80;99.90
52397;DHT22;38322;53.108;6.308;2022-12-29T09:15:45;8.80;99.90
52397;DHT22;38322;53.108;6.308;2022-12-29T09:18:11;8.90;99.90
52397;DHT22;38322;53.108;6.308;2022-12-29T09:20:37;8.90;99.90
52397;DHT22;38322;53.108;6.308;2022-12-29T09:23:04;8.90;99.90
52397;DHT22;38322;53.108;6.308;2022-12-29T09:25:31;8.80;99.90
52397;DHT22;38322;53.108;6.308;2022-12-29T09:27:57;8.90;99.90
52397;DHT22;38322;53.108;6.308;2022-12-29T09:30:23;8.80;99.90
52397;DHT22;38322;53.108;6.308;2022-12-29T09:32:49;8.80;99.90
52397;DHT22;38322;53.108;6.308;2022-12-29T09:35:16;8.80;99.90
52397;DHT22;38322;53.108;6.308;2022-12-29T09:37:42;8.80;99.90
52397;DHT22;38322;53.108;6.308;2022-12-29T09:40:24;8.80;99.90
52397;DHT22;38322;53.108;6.308;2022-12-29T09:45:43;8.80;99.90
52397;DHT22;38322;53.108;6.308;2022-12-29T09:48:23;8.80;99.90
52397;DHT22;38322;53.108;6.308;2022-12-29T09:50:58;8.80;99.90
52397;DHT22;38322;53.108;6.308;2022-12-29T09:56:01;8.80;99.90
52397;DHT22;38322;53.108;6.308;2022-12-29T09:58:37;8.80;99.90
52397;DHT22;38322;53.108;6.308;2022-12-29T10:01:20;8.80;99.90
52397;DHT22;38322;53.108;6.308;2022-12-29T10:03:49;8.80;99.90
52397;DHT22;38322;53.108;6.308;2022-12-29T10:06:22;8.70;99.90
52397;DHT22;38322;53.108;6.308;2022-12-29T10:09:20;8.70;99.90
52397;DHT22;38322;53.108;6.308;2022-12-29T10:14:33;8.60;99.90
52397;DHT22;38322;53.108;6.308;2022-12-29T10:17:12;8.50;99.90
52397;DHT22;38322;53.108;6.308;2022-12-29T10:20:10;8.50;99.90
52397;DHT22;38322;53.108;6.308;2022-12-29T10:25:30;8.50;99.90
52397;DHT22;38322;53.108;6.308;2022-12-29T10:28:00;8.40;99.90
52397;DHT22;38322;53.108;6.308;2022-12-29T10:30:29;8.40;99.90
52397;DHT22;38322;53.108;6.308;2022-12-29T10:33:04;8.40;99.90
52397;DHT22;38322;53.108;6.308;2022-12-29T10:35:35;8.30;99.90
52397;DHT22;38322;53.108;6.308;2022-12-29T10:43:32;8.30;99.90
52397;DHT22;38322;53.108;6.308;2022-12-29T10:46:02;8.40;99.90
52397;DHT22;38322;53.108;6.308;2022-12-29T10:48:34;8.40;99.90
52397;DHT22;38322;53.108;6.308;2022-12-29T10:51:04;8.40;99.90
52397;DHT22;38322;53.108;6.308;2022-12-29T10:53:42;8.40;99.90
52397;DHT22;38322;53.108;6.308;2022-12-29T10:58:56;8.50;99.90
52397;DHT22;38322;53.108;6.308;2022-12-29T11:01:25;8.70;99.90
52397;DHT22;38322;53.108;6.308;2022-12-29T11:06:28;9.00;99.90
52397;DHT22;38322;53.108;6.308;2022-12-29T11:09:02;9.00;99.90
52397;DHT22;38322;53.108;6.308;2022-12-29T11:11:35;9.10;99.90
52397;DHT22;38322;53.108;6.308;2022-12-29T11:16:39;9.10;99.90
52397;DHT22;38322;53.108;6.308;2022-12-29T11:19:22;9.10;99.90
52397;DHT22;38322;53.108;6.308;2022-12-29T11:21:49;9.10;99.90
52397;DHT22;38322;53.108;6.308;2022-12-29T11:26:46;9.10;99.90
52397;DHT22;38322;53.108;6.308;2022-12-29T11:29:26;9.10;99.90
52397;DHT22;38322;53.108;6.308;2022-12-29T11:31:58;9.10;99.90
52397;DHT22;38322;53.108;6.308;2022-12-29T11:36:57;9.20;99.90
52397;DHT22;38322;53.108;6.308;2022-12-29T11:42:19;9.20;99.90
52397;DHT22;38322;53.108;6.308;2022-12-29T11:44:47;9.20;99.90
52397;DHT22;38322;53.108;6.308;2022-12-29T11:47:23;9.20;99.90
52397;DHT22;38322;53.108;6.308;2022-12-29T11:49:53;9.20;99.90
52397;DHT22;38322;53.108;6.308;2022-12-29T11:52:28;9.20;99.90
52397;DHT22;38322;53.108;6.308;2022-12-29T11:54:56;9.30;99.90
52397;DHT22;38322;53.108;6.308;2022-12-29T11:57:23;9.30;99.90
52397;DHT22;38322;53.108;6.308;2022-12-29T11:59:53;9.30;99.90
52397;DHT22;38322;53.108;6.308;2022-12-29T12:02:23;9.30;99.90
52397;DHT22;38322;53.108;6.308;2022-12-29T12:05:20;9.30;99.90
52397;DHT22;38322;53.108;6.308;2022-12-29T12:07:45;9.20;99.90
52397;DHT22;38322;53.108;6.308;2022-12-29T12:10:25;9.20;99.90
52397;DHT22;38322;53.108;6.308;2022-12-29T12:13:01;9.20;99.90
52397;DHT22;38322;53.108;6.308;2022-12-29T12:15:40;9.20;99.90
52397;DHT22;38322;53.108;6.308;2022-12-29T12:18:42;9.20;99.90
52397;DHT22;38322;53.108;6.308;2022-12-29T12:21:13;9.00;99.90
52397;DHT22;38322;53.108;6.308;2022-12-29T12:29:45;9.00;99.90
52397;DHT22;38322;53.108;6.308;2022-12-29T12:32:19;9.00;99.90
52397;DHT22;38322;53.108;6.308;2022-12-29T12:34:47;9.00;99.90
52397;DHT22;38322;53.108;6.308;2022-12-29T12:48:06;9.10;99.90
52397;DHT22;38322;53.108;6.308;2022-12-29T13:04:32;8.90;99.90
52397;DHT22;38322;53.108;6.308;2022-12-29T13:15:49;9.00;99.90
52397;DHT22;38322;53.108;6.308;2022-12-29T13:20:58;8.90;99.90
52397;DHT22;38322;53.108;6.308;2022-12-29T13:23:59;8.90;99.90
52397;DHT22;38322;53.108;6.308;2022-12-29T13:26:36;8.90;99.90
52397;DHT22;38322;53.108;6.308;2022-12-29T13:37:14;8.80;99.90
52397;DHT22;38322;53.108;6.308;2022-12-29T13:39:49;8.80;99.90
52397;DHT22;38322;53.108;6.308;2022-12-29T13:42:18;8.80;99.90
52397;DHT22;38322;53.108;6.308;2022-12-29T13:44:48;8.90;99.90
52397;DHT22;38322;53.108;6.308;2022-12-29T13:47:37;8.90;99.90
52397;DHT22;38322;53.108;6.308;2022-12-29T13:50:12;8.90;99.90
52397;DHT22;38322;53.108;6.308;2022-12-29T14:06:21;8.50;99.90
52397;DHT22;38322;53.108;6.308;2022-12-29T14:08:50;8.40;99.90
52397;DHT22;38322;53.108;6.308;2022-12-29T14:11:21;8.40;99.90
52397;DHT22;38322;53.108;6.308;2022-12-29T14:13:48;8.40;99.90
52397;DHT22;38322;53.108;6.308;2022-12-29T14:16:31;8.30;99.90
52397;DHT22;38322;53.108;6.308;2022-12-29T14:19:05;8.30;99.90
52397;DHT22;38322;53.108;6.308;2022-12-29T14:21:35;8.30;99.90
52397;DHT22;38322;53.108;6.308;2022-12-29T14:26:53;8.20;99.90
52397;DHT22;38322;53.108;6.308;2022-12-29T14:31:51;8.20;99.90
52397;DHT22;38322;53.108;6.308;2022-12-29T14:36:53;8.20;99.90
52397;DHT22;38322;53.108;6.308;2022-12-29T14:39:32;8.20;99.90
52397;DHT22;38322;53.108;6.308;2022-12-29T14:42:00;8.20;99.90
52397;DHT22;38322;53.108;6.308;2022-12-29T14:44:28;8.20;99.90
52397;DHT22;38322;53.108;6.308;2022-12-29T14:47:08;8.20;99.90
52397;DHT22;38322;53.108;6.308;2022-12-29T14:49:42;8.10;99.90
52397;DHT22;38322;53.108;6.308;2022-12-29T14:54:45;8.10;99.90
52397;DHT22;38322;53.108;6.308;2022-12-29T14:59:48;8.00;99.90
52397;DHT22;38322;53.108;6.308;2022-12-29T15:02:21;8.00;99.90
52397;DHT22;38322;53.108;6.308;2022-12-29T15:04:48;7.90;99.90
52397;DHT22;38322;53.108;6.308;2022-12-29T15:07:15;7.90;99.90
52397;DHT22;38322;53.108;6.308;2022-12-29T15:09:45;7.90;99.90
52397;DHT22;38322;53.108;6.308;2022-12-29T15:15:00;7.80;99.90
52397;DHT22;38322;53.108;6.308;2022-12-29T15:17:32;7.80;99.90
52397;DHT22;38322;53.108;6.308;2022-12-29T15:20:13;7.80;99.90
52397;DHT22;38322;53.108;6.308;2022-12-29T15:22:48;7.80;99.90
52397;DHT22;38322;53.108;6.308;2022-12-29T15:25:16;7.70;99.90
52397;DHT22;38322;53.108;6.308;2022-12-29T15:27:49;7.70;99.90
52397;DHT22;38322;53.108;6.308;2022-12-29T15:30:15;7.70;99.90
52397;DHT22;38322;53.108;6.308;2022-12-29T15:32:46;7.70;99.90
52397;DHT22;38322;53.108;6.308;2022-12-29T15:35:27;7.70;99.90
52397;DHT22;38322;53.108;6.308;2022-12-29T15:37:53;7.70;99.90
52397;DHT22;38322;53.108;6.308;2022-12-29T15:40:24;7.70;99.90
52397;DHT22;38322;53.108;6.308;2022-12-29T15:43:07;7.70;99.90
52397;DHT22;38322;53.108;6.308;2022-12-29T15:45:35;7.70;99.90
52397;DHT22;38322;53.108;6.308;2022-12-29T15:48:02;7.70;99.90
52397;DHT22;38322;53.108;6.308;2022-12-29T15:50:31;7.60;99.90
52397;DHT22;38322;53.108;6.308;2022-12-29T15:52:58;7.60;99.90
52397;DHT22;38322;53.108;6.308;2022-12-29T15:55:27;7.70;99.90
52397;DHT22;38322;53.108;6.308;2022-12-29T15:57:58;7.70;99.90
52397;DHT22;38322;53.108;6.308;2022-12-29T16:00:30;7.70;99.90
52397;DHT22;38322;53.108;6.308;2022-12-29T16:02:59;7.70;99.90
52397;DHT22;38322;53.108;6.308;2022-12-29T16:05:33;7.70;99.90
52397;DHT22;38322;53.108;6.308;2022-12-29T16:08:00;7.70;99.90
52397;DHT22;38322;53.108;6.308;2022-12-29T16:10:46;7.70;99.90
52397;DHT22;38322;53.108;6.308;2022-12-29T16:13:31;7.70;99.90
52397;DHT22;38322;53.108;6.308;2022-12-29T16:16:02;7.60;99.90
52397;DHT22;38322;53.108;6.308;2022-12-29T16:18:35;7.50;99.90
52397;DHT22;38322;53.108;6.308;2022-12-29T16:21:11;7.40;99.90
52397;DHT22;38322;53.108;6.308;2022-12-29T16:23:40;7.30;99.90
52397;DHT22;38322;53.108;6.308;2022-12-29T16:26:16;7.30;99.90
52397;DHT22;38322;53.108;6.308;2022-12-29T16:28:43;7.20;99.90
52397;DHT22;38322;53.108;6.308;2022-12-29T16:31:23;7.20;99.90
52397;DHT22;38322;53.108;6.308;2022-12-29T16:36:33;7.10;99.90
52397;DHT22;38322;53.108;6.308;2022-12-29T16:41:40;7.10;99.90
52397;DHT22;38322;53.108;6.308;2022-12-29T16:44:20;7.00;99.90
52397;DHT22;38322;53.108;6.308;2022-12-29T16:49:32;7.00;99.90
52397;DHT22;38322;53.108;6.308;2022-12-29T16:51:58;7.00;99.90
52397;DHT22;38322;53.108;6.308;2022-12-29T16:54:30;7.00;99.90
52397;DHT22;38322;53.108;6.308;2022-12-29T16:56:57;7.00;99.90
52397;DHT22;38322;53.108;6.308;2022-12-29T17:01:55;6.90;99.90
52397;DHT22;38322;53.108;6.308;2022-12-29T17:04:22;7.00;99.90
52397;DHT22;38322;53.108;6.308;2022-12-29T17:06:47;7.00;99.90
52397;DHT22;38322;53.108;6.308;2022-12-29T17:09:31;7.00;99.90
52397;DHT22;38322;53.108;6.308;2022-12-29T17:11:59;7.00;99.90
52397;DHT22;38322;53.108;6.308;2022-12-29T17:19:59;7.20;99.90
52397;DHT22;38322;53.108;6.308;2022-12-29T17:22:29;7.20;99.90
52397;DHT22;38322;53.108;6.308;2022-12-29T17:24:57;7.20;99.90
52397;DHT22;38322;53.108;6.308;2022-12-29T17:27:44;7.20;99.90
52397;DHT22;38322;53.108;6.308;2022-12-29T17:30:19;7.20;99.90
52397;DHT22;38322;53.108;6.308;2022-12-29T17:32:51;7.20;99.90
52397;DHT22;38322;53.108;6.308;2022-12-29T17:35:19;7.20;99.90
52397;DHT22;38322;53.108;6.308;2022-12-29T17:37:46;7.20;99.90
52397;DHT22;38322;53.108;6.308;2022-12-29T17:40:15;7.20;99.90
52397;DHT22;38322;53.108;6.308;2022-12-29T17:42:44;7.20;99.90
52397;DHT22;38322;53.108;6.308;2022-12-29T17:45:15;7.20;99.90
52397;DHT22;38322;53.108;6.308;2022-12-29T17:47:41;7.20;99.90
52397;DHT22;38322;53.108;6.308;2022-12-29T17:50:15;7.20;99.90
52397;DHT22;38322;53.108;6.308;2022-12-29T17:52:43;7.20;99.90
52397;DHT22;38322;53.108;6.308;2022-12-29T17:55:17;7.20;99.90
52397;DHT22;38322;53.108;6.308;2022-12-29T17:57:44;7.10;99.90
52397;DHT22;38322;53.108;6.308;2022-12-29T18:00:23;7.20;99.90
52397;DHT22;38322;53.108;6.308;2022-12-29T18:02:52;7.20;99.90
52397;DHT22;38322;53.108;6.308;2022-12-29T18:05:28;7.20;99.90
52397;DHT22;38322;53.108;6.308;2022-12-29T18:07:57;7.10;99.90
52397;DHT22;38322;53.108;6.308;2022-12-29T18:10:25;7.10;99.90
52397;DHT22;38322;53.108;6.308;2022-12-29T18:12:54;7.20;99.90
52397;DHT22;38322;53.108;6.308;2022-12-29T18:15:26;7.10;99.90
52397;DHT22;38322;53.108;6.308;2022-12-29T18:20:33;7.10;99.90
52397;DHT22;38322;53.108;6.308;2022-12-29T18:22:59;7.10;99.90
52397;DHT22;38322;53.108;6.308;2022-12-29T18:25:51;7.10;99.90
52397;DHT22;38322;53.108;6.308;2022-12-29T18:28:18;7.10;99.90
52397;DHT22;38322;53.108;6.308;2022-12-29T18:30:44;7.10;99.90
52397;DHT22;38322;53.108;6.308;2022-12-29T18:33:17;7.10;99.90
52397;DHT22;38322;53.108;6.308;2022-12-29T18:35:53;7.00;99.90
52397;DHT22;38322;53.108;6.308;2022-12-29T18:38:20;7.00;99.90
52397;DHT22;38322;53.108;6.308;2022-12-29T18:40:47;7.00;99.90
52397;DHT22;38322;53.108;6.308;2022-12-29T18:43:17;7.00;99.90
52397;DHT22;38322;53.108;6.308;2022-12-29T18:45:44;6.90;99.90
52397;DHT22;38322;53.108;6.308;2022-12-29T18:48:17;6.90;99.90
52397;DHT22;38322;53.108;6.308;2022-12-29T18:50:44;6.90;99.90
52397;DHT22;38322;53.108;6.308;2022-12-29T18:53:25;6.90;99.90
52397;DHT22;38322;53.108;6.308;2022-12-29T18:55:52;6.90;99.90
52397;DHT22;38322;53.108;6.308;2022-12-29T18:58:18;6.90;99.90
52397;DHT22;38322;53.108;6.308;2022-12-29T19:00:45;6.90;99.90
52397;DHT22;38322;53.108;6.308;2022-12-29T19:03:12;6.90;99.90
52397;DHT22;38322;53.108;6.308;2022-12-29T19:05:40;6.80;99.90
52397;DHT22;38322;53.108;6.308;2022-12-29T19:08:07;6.90;99.90
52397;DHT22;38322;53.108;6.308;2022-12-29T19:10:33;6.90;99.90
52397;DHT22;38322;53.108;6.308;2022-12-29T19:13:00;6.90;99.90
52397;DHT22;38322;53.108;6.308;2022-12-29T19:15:29;6.90;99.90
52397;DHT22;38322;53.108;6.308;2022-12-29T19:17:57;6.90;99.90
52397;DHT22;38322;53.108;6.308;2022-12-29T19:20:30;6.80;99.90
52397;DHT22;38322;53.108;6.308;2022-12-29T19:23:00;6.80;99.90
52397;DHT22;38322;53.108;6.308;2022-12-29T19:25:27;6.80;99.90
52397;DHT22;38322;53.108;6.308;2022-12-29T19:27:53;6.80;99.90
52397;DHT22;38322;53.108;6.308;2022-12-29T19:30:20;6.80;99.90
52397;DHT22;38322;53.108;6.308;2022-12-29T19:32:50;6.80;99.90
52397;DHT22;38322;53.108;6.308;2022-12-29T19:35:24;6.80;99.90
52397;DHT22;38322;53.108;6.308;2022-12-29T19:37:51;6.70;99.90
52397;DHT22;38322;53.108;6.308;2022-12-29T19:40:22;6.70;99.90
52397;DHT22;38322;53.108;6.308;2022-12-29T19:42:49;6.80;99.90
52397;DHT22;38322;53.108;6.308;2022-12-29T19:45:15;6.80;99.90
52397;DHT22;38322;53.108;6.308;2022-12-29T19:47:41;6.80;99.90
52397;DHT22;38322;53.108;6.308;2022-12-29T19:50:10;6.80;99.90
52397;DHT22;38322;53.108;6.308;2022-12-29T19:52:37;6.80;99.90
52397;DHT22;38322;53.108;6.308;2022-12-29T19:55:03;6.80;99.90
52397;DHT22;38322;53.108;6.308;2022-12-29T19:57:30;6.80;99.90
52397;DHT22;38322;53.108;6.308;2022-12-29T19:59:56;6.80;99.90
52397;DHT22;38322;53.108;6.308;2022-12-29T20:02:26;6.90;99.90
52397;DHT22;38322;53.108;6.308;2022-12-29T20:04:52;6.80;99.90
52397;DHT22;38322;53.108;6.308;2022-12-29T20:07:19;6.90;99.90
52397;DHT22;38322;53.108;6.308;2022-12-29T20:09:45;6.90;99.90
52397;DHT22;38322;53.108;6.308;2022-12-29T20:12:11;6.90;99.90
52397;DHT22;38322;53.108;6.308;2022-12-29T20:14:41;6.90;99.90
52397;DHT22;38322;53.108;6.308;2022-12-29T20:17:08;6.90;99.90
52397;DHT22;38322;53.108;6.308;2022-12-29T20:19:35;6.90;99.90
52397;DHT22;38322;53.108;6.308;2022-12-29T20:22:02;6.90;99.90
52397;DHT22;38322;53.108;6.308;2022-12-29T20:24:29;6.90;99.90
52397;DHT22;38322;53.108;6.308;2022-12-29T20:26:56;6.90;99.90
52397;DHT22;38322;53.108;6.308;2022-12-29T20:29:24;6.80;99.90
52397;DHT22;38322;53.108;6.308;2022-12-29T20:31:50;6.90;99.90
52397;DHT22;38322;53.108;6.308;2022-12-29T20:34:17;6.80;99.90
52397;DHT22;38322;53.108;6.308;2022-12-29T20:36:45;6.80;99.90
52397;DHT22;38322;53.108;6.308;2022-12-29T20:39:15;6.80;99.90
52397;DHT22;38322;53.108;6.308;2022-12-29T20:41:42;6.80;99.90
52397;DHT22;38322;53.108;6.308;2022-12-29T20:44:09;6.80;99.90
52397;DHT22;38322;53.108;6.308;2022-12-29T20:46:35;6.80;99.90
52397;DHT22;38322;53.108;6.308;2022-12-29T20:49:01;6.80;99.90
52397;DHT22;38322;53.108;6.308;2022-12-29T20:51:27;6.80;99.90
52397;DHT22;38322;53.108;6.308;2022-12-29T20:53:55;6.70;99.90
52397;DHT22;38322;53.108;6.308;2022-12-29T20:56:23;6.70;99.90
52397;DHT22;38322;53.108;6.308;2022-12-29T20:58:50;6.70;99.90
